Time;durP1;ratioP1;P1;durP2;ratioP2;P2;SDS_P1;SDS_P2;PMS_P1;PMS_P2;Temp;Humidity;BMP_temperature;BMP_pressure;BME280_temperature;BME280_humidity;BME280_pressure;Samples;Min_cycle;Max_cycle;Signal;HPM_P1;HPM_P2
2022/09/11 00:02:05;;;;;;;43.03;32.63;;;14.50;99.90;;;;;;5042656;28;20109;-95
2022/09/11 00:04:32;;;;;;;45.70;33.05;;;14.50;99.90;;;;;;5019152;28;20048;-93
2022/09/11 00:06:58;;;;;;;41.67;30.77;;;14.50;99.90;;;;;;5014260;28;20045;-95
2022/09/11 00:09:24;;;;;;;46.70;32.75;;;14.50;99.90;;;;;;5044625;28;20049;-95
2022/09/11 00:11:50;;;;;;;48.10;33.67;;;14.50;99.90;;;;;;5037950;28;20071;-94
2022/09/11 00:14:15;;;;;;;47.45;33.58;;;14.40;99.90;;;;;;5036587;28;20139;-95
2022/09/11 00:16:44;;;;;;;48.45;33.13;;;14.40;99.90;;;;;;5040825;28;20042;-94
2022/09/11 00:19:13;;;;;;;44.60;32.33;;;14.40;99.90;;;;;;5037856;28;20056;-94
2022/09/11 00:21:39;;;;;;;41.67;31.70;;;14.40;99.90;;;;;;5027526;28;20045;-95
2022/09/11 00:24:08;;;;;;;46.58;32.30;;;14.40;99.90;;;;;;5044640;28;20056;-96
2022/09/11 00:26:34;;;;;;;43.47;33.00;;;14.40;99.90;;;;;;5020623;28;20038;-95
2022/09/11 00:29:01;;;;;;;41.08;32.10;;;14.40;99.90;;;;;;5021425;28;20041;-95
2022/09/11 00:31:28;;;;;;;42.15;32.08;;;14.40;99.90;;;;;;5034229;23;20050;-96
2022/09/11 00:33:55;;;;;;;44.80;32.35;;;14.30;99.90;;;;;;4974682;28;20129;-94
2022/09/11 00:36:27;;;;;;;46.70;33.13;;;14.20;99.90;;;;;;4962159;28;20098;-95
2022/09/11 00:38:54;;;;;;;46.13;33.05;;;14.30;99.90;;;;;;4964318;28;20047;-94
2022/09/11 00:41:24;;;;;;;47.75;33.83;;;14.30;99.90;;;;;;4965900;28;20039;-94
2022/09/11 00:44:01;;;;;;;46.13;32.80;;;14.20;99.90;;;;;;4955160;28;20113;-94
2022/09/11 00:46:50;;;;;;;45.33;32.42;;;14.20;99.90;;;;;;4947724;28;20562;-95
2022/09/11 00:49:41;;;;;;;50.15;33.78;;;14.20;99.90;;;;;;4958804;28;20106;-95
2022/09/11 00:52:16;;;;;;;44.03;33.22;;;14.20;99.90;;;;;;4966993;28;20043;-94
2022/09/11 00:54:50;;;;;;;41.80;31.30;;;14.20;99.90;;;;;;4955781;29;20102;-95
2022/09/11 00:59:48;;;;;;;52.25;35.17;;;14.20;99.90;;;;;;4959390;28;20047;-94
2022/09/11 01:02:17;;;;;;;42.45;32.38;;;14.20;99.90;;;;;;4967906;29;20047;-96
2022/09/11 01:04:44;;;;;;;44.35;32.88;;;14.20;99.90;;;;;;5027433;23;20609;-96
2022/09/11 01:07:12;;;;;;;44.55;32.15;;;14.10;99.90;;;;;;5020053;28;20046;-96
2022/09/11 01:09:39;;;;;;;42.38;32.28;;;14.10;99.90;;;;;;5031761;28;20045;-96
2022/09/11 01:12:08;;;;;;;42.45;31.88;;;14.10;99.90;;;;;;5035593;28;20125;-96
2022/09/11 01:14:52;;;;;;;43.55;32.60;;;14.00;99.90;;;;;;5071072;23;20118;-94
2022/09/11 01:17:29;;;;;;;45.17;34.08;;;14.10;99.90;;;;;;4996441;28;20054;-95
2022/09/11 01:20:20;;;;;;;46.80;34.83;;;14.00;99.90;;;;;;5009593;28;20070;-95
2022/09/11 01:23:07;;;;;;;49.85;34.67;;;14.00;99.90;;;;;;5014336;28;20050;-95
2022/09/11 01:25:50;;;;;;;46.80;34.50;;;14.00;99.90;;;;;;5015186;28;20065;-96
2022/09/11 01:28:23;;;;;;;44.83;33.90;;;14.00;99.90;;;;;;4997414;28;20051;-96
2022/09/11 01:31:04;;;;;;;48.60;34.92;;;14.00;99.90;;;;;;5003537;28;20039;-96
2022/09/11 01:33:58;;;;;;;47.28;34.22;;;13.90;99.90;;;;;;5012679;28;20388;-95
2022/09/11 01:36:43;;;;;;;51.58;36.65;;;14.00;99.90;;;;;;5024568;28;20050;-95
2022/09/11 01:39:09;;;;;;;52.60;35.22;;;14.00;99.90;;;;;;5016847;28;20037;-95
2022/09/11 01:41:50;;;;;;;59.85;36.42;;;14.00;99.90;;;;;;4989800;28;20058;-96
2022/09/11 01:44:26;;;;;;;56.43;36.77;;;14.00;99.90;;;;;;5011626;28;20054;-95
2022/09/11 01:46:55;;;;;;;57.05;36.53;;;14.00;99.90;;;;;;5225487;23;20058;-95
2022/09/11 01:49:34;;;;;;;52.55;36.13;;;13.90;99.90;;;;;;5019218;28;20058;-94
2022/09/11 01:52:10;;;;;;;59.45;36.67;;;13.90;99.90;;;;;;5034931;28;20069;-95
2022/09/11 01:57:17;;;;;;;45.75;34.25;;;13.90;99.90;;;;;;5712522;23;20092;-96
2022/09/11 01:59:51;;;;;;;47.83;36.20;;;13.90;99.90;;;;;;5036683;28;20050;-96
2022/09/11 02:02:23;;;;;;;49.92;34.00;;;13.90;99.90;;;;;;5037718;28;20517;-95
2022/09/11 02:04:59;;;;;;;46.58;34.63;;;13.90;99.90;;;;;;5513317;23;20061;-95
2022/09/11 02:07:33;;;;;;;51.00;35.17;;;14.00;99.90;;;;;;5030523;28;20101;-96
2022/09/11 02:10:13;;;;;;;53.78;35.15;;;14.00;99.90;;;;;;5017330;28;20148;-95
2022/09/11 02:12:57;;;;;;;94.15;38.20;;;13.90;99.90;;;;;;5013399;28;20185;-95
2022/09/11 02:15:32;;;;;;;65.20;35.35;;;13.90;99.90;;;;;;5038076;28;20188;-95
2022/09/11 02:18:08;;;;;;;62.05;35.55;;;13.90;99.90;;;;;;5016075;28;20073;-95
2022/09/11 02:20:35;;;;;;;62.30;34.88;;;13.80;99.90;;;;;;5033109;28;20046;-95
2022/09/11 02:23:03;;;;;;;55.20;32.70;;;13.80;99.90;;;;;;5036926;28;20037;-95
2022/09/11 02:25:29;;;;;;;91.63;36.63;;;13.80;99.90;;;;;;5013838;28;20046;-94
2022/09/11 02:27:54;;;;;;;50.92;35.28;;;13.80;99.90;;;;;;5026303;28;20037;-95
2022/09/11 02:30:20;;;;;;;45.72;33.20;;;13.80;99.90;;;;;;4999279;28;20052;-96
2022/09/11 02:32:46;;;;;;;59.88;36.63;;;13.80;99.90;;;;;;5024836;28;20379;-94
2022/09/11 02:35:15;;;;;;;44.42;31.58;;;13.80;99.90;;;;;;5024624;28;20049;-94
2022/09/11 02:38:24;;;;;;;40.60;31.65;;;13.90;99.90;;;;;;5035042;28;20046;-94
2022/09/11 02:41:07;;;;;;;36.33;30.02;;;13.80;99.90;;;;;;4988036;28;20093;-94
2022/09/11 02:43:50;;;;;;;39.45;30.38;;;13.80;99.90;;;;;;5006851;28;20050;-94
2022/09/11 02:46:37;;;;;;;38.10;31.00;;;13.80;99.90;;;;;;5022576;28;20097;-96
2022/09/11 02:49:19;;;;;;;36.13;29.00;;;13.80;99.90;;;;;;5000468;28;20380;-95
2022/09/11 02:52:03;;;;;;;39.17;30.70;;;13.80;99.90;;;;;;5017071;28;20054;-94
2022/09/11 02:54:47;;;;;;;40.47;31.15;;;13.70;99.90;;;;;;4983445;28;20109;-95
2022/09/11 02:57:37;;;;;;;37.10;30.27;;;13.70;99.90;;;;;;4976375;28;20044;-94
2022/09/11 03:00:07;;;;;;;34.17;28.38;;;13.70;99.90;;;;;;5007416;28;20058;-94
2022/09/11 03:02:36;;;;;;;34.67;28.47;;;13.70;99.90;;;;;;5011056;28;20053;-94
2022/09/11 03:05:03;;;;;;;32.50;27.13;;;13.70;99.90;;;;;;4994514;28;20140;-93
2022/09/11 03:07:29;;;;;;;35.58;29.13;;;13.70;99.90;;;;;;5010882;28;20046;-94
2022/09/11 03:09:54;;;;;;;36.40;28.83;;;13.70;99.90;;;;;;5009769;28;20446;-93
2022/09/11 03:12:20;;;;;;;39.40;29.90;;;13.60;99.90;;;;;;5011674;28;20077;-93
2022/09/11 03:14:47;;;;;;;38.47;28.58;;;13.60;99.90;;;;;;5010570;28;20490;-92
2022/09/11 03:17:13;;;;;;;41.30;30.02;;;13.50;99.90;;;;;;5011435;28;20137;-94
2022/09/11 03:19:38;;;;;;;34.28;27.50;;;13.50;99.90;;;;;;5012149;28;20077;-92
2022/09/11 03:22:04;;;;;;;31.73;26.50;;;13.50;99.90;;;;;;4994896;28;20364;-93
2022/09/11 03:24:30;;;;;;;52.97;29.10;;;13.40;99.90;;;;;;4993989;28;20510;-93
2022/09/11 03:26:55;;;;;;;51.63;26.88;;;13.40;99.90;;;;;;5010811;28;20045;-92
2022/09/11 03:29:21;;;;;;;77.15;30.80;;;13.30;99.90;;;;;;5012178;28;20042;-92
2022/09/11 03:31:47;;;;;;;40.53;27.67;;;13.20;99.90;;;;;;5011527;28;20042;-93
2022/09/11 03:34:13;;;;;;;35.90;27.70;;;13.20;99.90;;;;;;5011240;28;20411;-93
2022/09/11 03:36:39;;;;;;;31.80;26.05;;;13.10;99.90;;;;;;4974573;28;20135;-93
2022/09/11 03:39:05;;;;;;;58.20;29.13;;;13.10;99.90;;;;;;5007988;28;20499;-92
2022/09/11 03:41:31;;;;;;;51.20;25.48;;;13.10;99.90;;;;;;5010147;28;20045;-93
2022/09/11 03:43:57;;;;;;;60.63;26.77;;;13.00;99.90;;;;;;5010740;28;20106;-92
2022/09/11 03:46:23;;;;;;;35.05;24.40;;;13.00;99.90;;;;;;4991938;28;20044;-92
2022/09/11 03:48:50;;;;;;;27.13;23.17;;;12.80;99.90;;;;;;5011927;28;20380;-94
2022/09/11 03:51:16;;;;;;;27.52;23.60;;;12.90;99.90;;;;;;5017744;28;20510;-94
2022/09/11 03:53:43;;;;;;;26.13;23.30;;;12.90;99.90;;;;;;5008884;28;20038;-91
2022/09/11 03:56:12;;;;;;;27.55;23.23;;;12.90;99.90;;;;;;4994399;28;20049;-91
2022/09/11 03:58:39;;;;;;;25.08;21.90;;;12.90;99.90;;;;;;4993030;28;20038;-91
2022/09/11 04:01:12;;;;;;;25.15;21.85;;;12.80;99.90;;;;;;4996056;28;20438;-91
2022/09/11 04:03:39;;;;;;;25.17;22.48;;;12.80;99.90;;;;;;5021935;28;20048;-92
2022/09/11 04:06:05;;;;;;;26.05;22.33;;;12.80;99.90;;;;;;5007516;28;20100;-92
2022/09/11 04:08:34;;;;;;;24.33;21.73;;;12.80;99.90;;;;;;4995223;28;20038;-92
2022/09/11 04:11:01;;;;;;;24.67;21.92;;;12.80;99.90;;;;;;4999470;28;20037;-91
2022/09/11 04:13:29;;;;;;;25.40;22.60;;;12.90;99.90;;;;;;5031428;28;20045;-92
2022/09/11 04:16:06;;;;;;;25.98;22.80;;;12.70;99.90;;;;;;4992801;28;20085;-91
2022/09/11 04:18:34;;;;;;;24.70;21.20;;;12.80;99.90;;;;;;4993803;28;20085;-92
2022/09/11 04:21:08;;;;;;;26.67;23.75;;;12.70;99.90;;;;;;4992356;28;20133;-91
2022/09/11 04:23:35;;;;;;;26.67;22.60;;;12.70;99.90;;;;;;5009341;28;20040;-92
2022/09/11 04:26:01;;;;;;;25.08;22.38;;;12.70;99.90;;;;;;5017918;28;20091;-92
2022/09/11 04:28:29;;;;;;;26.20;22.38;;;12.70;99.90;;;;;;5026395;28;20056;-91
2022/09/11 04:30:56;;;;;;;24.73;21.45;;;12.70;99.90;;;;;;4991988;28;20041;-91
2022/09/11 04:33:23;;;;;;;24.70;21.83;;;12.70;99.90;;;;;;4997113;28;20128;-92
2022/09/11 04:35:49;;;;;;;27.27;23.10;;;12.60;99.90;;;;;;5007962;28;20394;-92
2022/09/11 04:38:15;;;;;;;24.83;21.25;;;12.60;99.90;;;;;;4988854;28;20042;-92
2022/09/11 04:40:41;;;;;;;24.77;21.48;;;12.60;99.90;;;;;;5013640;28;20605;-92
2022/09/11 04:43:06;;;;;;;23.60;20.88;;;12.60;99.90;;;;;;5005794;28;20088;-91
2022/09/11 04:45:32;;;;;;;20.38;18.23;;;12.70;99.90;;;;;;4996019;28;20509;-92
2022/09/11 04:47:59;;;;;;;20.23;18.02;;;12.60;99.90;;;;;;5009924;28;20124;-93
2022/09/11 04:50:27;;;;;;;20.20;18.02;;;12.60;99.90;;;;;;4991723;28;20050;-92
2022/09/11 04:52:53;;;;;;;18.77;16.48;;;12.60;99.90;;;;;;4992696;28;20472;-90
2022/09/11 04:55:19;;;;;;;19.70;17.67;;;12.70;99.90;;;;;;5007840;28;20069;-89
2022/09/11 04:57:45;;;;;;;19.17;17.17;;;12.60;99.90;;;;;;5006807;28;20045;-91
2022/09/11 05:00:11;;;;;;;19.35;17.35;;;12.60;99.90;;;;;;5010399;28;20050;-87
2022/09/11 05:02:37;;;;;;;18.98;17.05;;;12.50;99.90;;;;;;5017782;28;20060;-88
2022/09/11 05:05:03;;;;;;;18.27;16.23;;;12.50;99.90;;;;;;5011475;28;20100;-89
2022/09/11 05:07:30;;;;;;;19.00;17.00;;;12.50;99.90;;;;;;5010988;28;20050;-88
2022/09/11 05:09:56;;;;;;;18.08;16.17;;;12.50;99.90;;;;;;5010761;28;20054;-88
2022/09/11 05:12:22;;;;;;;17.23;15.45;;;12.50;99.90;;;;;;5018900;28;21472;-89
2022/09/11 05:14:47;;;;;;;18.90;16.90;;;12.50;99.90;;;;;;5015349;28;20479;-90
2022/09/11 05:17:13;;;;;;;18.65;16.75;;;12.50;99.90;;;;;;5010179;28;20407;-90
2022/09/11 05:19:39;;;;;;;18.67;16.75;;;12.50;99.90;;;;;;5009220;28;20426;-89
2022/09/11 05:22:05;;;;;;;18.58;16.60;;;12.60;99.90;;;;;;5011158;28;20042;-90
2022/09/11 05:24:31;;;;;;;20.17;17.20;;;12.50;99.90;;;;;;5011853;28;20130;-89
2022/09/11 05:27:00;;;;;;;20.63;17.48;;;12.60;99.90;;;;;;5016407;28;20054;-90
2022/09/11 05:29:29;;;;;;;20.05;17.85;;;12.60;99.90;;;;;;4995107;28;20054;-89
2022/09/11 05:31:57;;;;;;;21.77;18.83;;;12.60;99.90;;;;;;4993109;28;20050;-89
2022/09/11 05:34:23;;;;;;;20.60;17.92;;;12.70;99.90;;;;;;4994116;28;20143;-89
2022/09/11 05:36:50;;;;;;;27.65;24.80;;;12.80;99.90;;;;;;5010345;28;20061;-91
2022/09/11 05:39:15;;;;;;;30.27;26.95;;;12.90;99.90;;;;;;5007973;28;20053;-90
2022/09/11 05:41:41;;;;;;;28.60;25.42;;;13.00;99.90;;;;;;5017325;28;20042;-90
2022/09/11 05:44:07;;;;;;;27.65;24.65;;;13.10;99.90;;;;;;4994061;28;20054;-90
2022/09/11 05:46:33;;;;;;;21.98;19.65;;;13.20;99.90;;;;;;5013796;28;20040;-91
2022/09/11 05:48:59;;;;;;;21.80;18.63;;;13.20;99.90;;;;;;5010247;28;20041;-90
2022/09/11 05:51:24;;;;;;;22.85;19.60;;;13.10;99.90;;;;;;4994980;28;20132;-89
2022/09/11 05:53:54;;;;;;;22.38;19.27;;;13.20;99.90;;;;;;5010557;28;20240;-89
2022/09/11 05:56:24;;;;;;;22.55;18.63;;;13.10;99.90;;;;;;4994926;28;20045;-88
2022/09/11 05:58:53;;;;;;;22.15;19.15;;;13.10;99.90;;;;;;4994034;28;20038;-90
2022/09/11 06:01:25;;;;;;;25.52;22.88;;;13.20;99.90;;;;;;4994503;28;20061;-91
2022/09/11 06:03:51;;;;;;;29.20;26.08;;;13.30;99.90;;;;;;5009163;28;20120;-89
2022/09/11 06:06:18;;;;;;;30.52;27.15;;;13.50;99.90;;;;;;4995490;28;20058;-90
2022/09/11 06:08:44;;;;;;;33.22;29.35;;;13.60;99.90;;;;;;4999533;28;20093;-91
2022/09/11 06:11:12;;;;;;;27.63;24.65;;;13.70;99.90;;;;;;4990361;28;20058;-90
2022/09/11 06:13:39;;;;;;;27.05;24.15;;;13.80;99.90;;;;;;4984858;28;20042;-90
2022/09/11 06:16:10;;;;;;;26.10;23.38;;;13.90;99.90;;;;;;5010502;28;20056;-90
2022/09/11 06:18:36;;;;;;;24.50;21.85;;;14.00;99.90;;;;;;5009482;28;20049;-90
2022/09/11 06:21:08;;;;;;;22.45;19.52;;;14.00;99.90;;;;;;4993990;28;20046;-92
2022/09/11 06:23:38;;;;;;;21.67;19.38;;;14.00;99.90;;;;;;4995486;28;20049;-91
2022/09/11 06:26:07;;;;;;;21.63;19.33;;;14.10;99.90;;;;;;4996376;28;20390;-91
2022/09/11 06:28:35;;;;;;;20.83;18.63;;;14.10;99.90;;;;;;5003645;28;20111;-93
2022/09/11 06:31:01;;;;;;;23.60;21.10;;;14.10;99.90;;;;;;4996783;28;20069;-94
2022/09/11 06:33:35;;;;;;;22.10;19.88;;;14.20;99.90;;;;;;4994291;28;20037;-90
2022/09/11 06:36:06;;;;;;;23.52;20.60;;;14.20;99.90;;;;;;5011381;28;20046;-91
2022/09/11 06:38:32;;;;;;;22.90;20.50;;;14.30;99.90;;;;;;4994802;28;20041;-92
2022/09/11 06:41:01;;;;;;;21.85;19.55;;;14.40;99.90;;;;;;4998840;28;20401;-91
2022/09/11 06:43:28;;;;;;;22.80;20.42;;;14.50;99.90;;;;;;5011946;28;20060;-91
2022/09/11 06:45:53;;;;;;;22.27;19.90;;;14.50;99.90;;;;;;5010355;28;20042;-90
2022/09/11 06:48:19;;;;;;;23.52;21.00;;;14.60;99.90;;;;;;5009237;28;20045;-91
2022/09/11 06:50:45;;;;;;;23.35;20.95;;;14.60;99.90;;;;;;5008934;28;20038;-90
2022/09/11 06:53:13;;;;;;;24.10;21.67;;;14.70;99.90;;;;;;5018480;28;20037;-90
2022/09/11 06:55:39;;;;;;;23.42;20.95;;;14.80;99.90;;;;;;5019714;28;20099;-90
2022/09/11 06:58:08;;;;;;;24.63;22.02;;;14.80;99.90;;;;;;5021017;28;20038;-92
2022/09/11 07:00:35;;;;;;;26.90;24.13;;;14.90;99.90;;;;;;5009085;28;20042;-92
2022/09/11 07:03:02;;;;;;;26.15;23.55;;;14.90;99.90;;;;;;5010737;28;20054;-90
2022/09/11 07:05:34;;;;;;;25.65;23.10;;;15.10;99.90;;;;;;5011025;28;20046;-93
2022/09/11 07:08:02;;;;;;;28.63;25.23;;;15.10;99.90;;;;;;5012117;28;20042;-94
2022/09/11 07:10:28;;;;;;;27.13;24.17;;;15.20;99.90;;;;;;4992826;28;20089;-92
2022/09/11 07:13:00;;;;;;;26.55;23.80;;;15.30;99.90;;;;;;5008114;28;20038;-95
2022/09/11 07:15:25;;;;;;;25.08;22.58;;;15.40;99.90;;;;;;4998168;28;20046;-91
2022/09/11 07:17:51;;;;;;;26.73;24.08;;;15.40;99.90;;;;;;5005043;28;20042;-93
2022/09/11 07:20:17;;;;;;;26.80;24.20;;;15.50;99.90;;;;;;4994196;28;20381;-93
2022/09/11 07:22:44;;;;;;;26.05;23.48;;;15.70;99.90;;;;;;5004743;28;20051;-92
2022/09/11 07:25:14;;;;;;;24.80;22.30;;;15.70;99.90;;;;;;5022818;28;20041;-92
2022/09/11 07:27:40;;;;;;;26.40;23.77;;;15.80;99.90;;;;;;4979671;28;20110;-90
2022/09/11 07:30:06;;;;;;;24.40;22.10;;;15.90;99.90;;;;;;4996093;28;20054;-93
2022/09/11 07:32:32;;;;;;;25.23;22.63;;;15.90;99.90;;;;;;4997063;28;20053;-91
2022/09/11 07:35:00;;;;;;;25.58;23.02;;;16.00;99.90;;;;;;5007604;28;20431;-91
2022/09/11 07:37:26;;;;;;;24.83;22.25;;;16.10;99.90;;;;;;4999977;28;20042;-91
2022/09/11 07:39:51;;;;;;;24.38;22.00;;;16.20;99.90;;;;;;5000229;28;20140;-92
2022/09/11 07:42:17;;;;;;;23.48;21.08;;;16.20;99.90;;;;;;5006113;28;20047;-89
2022/09/11 07:44:43;;;;;;;24.92;22.40;;;16.30;99.90;;;;;;4990459;28;20398;-88
2022/09/11 07:47:08;;;;;;;22.65;20.38;;;16.40;99.90;;;;;;4989737;28;20030;-89
2022/09/11 07:49:34;;;;;;;23.90;21.45;;;16.40;99.90;;;;;;4992051;28;20064;-90
2022/09/11 07:52:02;;;;;;;22.60;20.40;;;16.60;99.90;;;;;;5010514;28;20041;-92
2022/09/11 07:54:29;;;;;;;22.67;20.42;;;16.60;99.90;;;;;;5008969;28;20103;-90
2022/09/11 07:56:55;;;;;;;21.38;19.35;;;16.70;99.90;;;;;;4992649;28;20041;-89
2022/09/11 07:59:21;;;;;;;22.70;20.50;;;16.80;99.90;;;;;;5005295;28;20081;-91
2022/09/11 08:01:49;;;;;;;23.00;20.80;;;16.80;99.90;;;;;;4994154;28;20042;-89
2022/09/11 08:04:14;;;;;;;22.65;20.17;;;16.90;99.90;;;;;;5016805;28;20042;-90
2022/09/11 08:06:41;;;;;;;22.35;20.15;;;16.90;99.90;;;;;;4992374;28;20455;-89
2022/09/11 08:09:09;;;;;;;20.52;18.42;;;17.00;99.90;;;;;;5009881;28;20120;-89
2022/09/11 08:11:41;;;;;;;21.67;19.42;;;17.10;99.90;;;;;;5005738;28;20049;-86
2022/09/11 08:14:10;;;;;;;20.08;18.08;;;17.10;99.90;;;;;;5000910;28;20360;-90
2022/09/11 08:16:36;;;;;;;20.65;18.50;;;17.10;99.90;;;;;;4993667;28;20103;-94
2022/09/11 08:19:02;;;;;;;20.00;18.00;;;17.20;99.90;;;;;;5007188;28;20133;-90
2022/09/11 08:21:28;;;;;;;21.17;19.08;;;17.30;99.90;;;;;;5008114;28;20048;-89
2022/09/11 08:23:54;;;;;;;18.80;17.00;;;17.40;99.90;;;;;;4993964;28;20494;-92
2022/09/11 08:26:24;;;;;;;19.77;17.77;;;17.50;99.90;;;;;;5008876;28;20030;-90
2022/09/11 08:28:51;;;;;;;17.75;15.95;;;17.50;99.90;;;;;;5008449;28;20042;-93
2022/09/11 08:31:19;;;;;;;18.88;16.60;;;17.60;99.90;;;;;;4990224;28;20046;-91
2022/09/11 08:33:45;;;;;;;17.33;15.52;;;17.70;99.90;;;;;;5003889;28;20068;-90
2022/09/11 08:36:13;;;;;;;17.35;14.85;;;17.70;99.90;;;;;;4991428;28;20065;-91
2022/09/11 08:38:40;;;;;;;15.88;14.13;;;17.80;99.90;;;;;;4990046;28;20042;-91
2022/09/11 08:41:15;;;;;;;13.02;9.88;;;17.90;99.90;;;;;;4992119;28;20096;-90
2022/09/11 08:43:49;;;;;;;11.52;8.73;;;18.00;99.90;;;;;;4992590;28;20052;-90
2022/09/11 08:46:17;;;;;;;10.02;8.10;;;18.10;99.90;;;;;;5009072;28;20100;-90
2022/09/11 08:49:10;;;;;;;11.60;7.95;;;18.20;99.90;;;;;;4991943;28;20490;-91
2022/09/11 08:51:36;;;;;;;11.70;7.45;;;18.30;99.90;;;;;;5009031;28;20088;-88
2022/09/11 08:54:02;;;;;;;9.88;7.10;;;18.40;99.90;;;;;;5006532;28;20431;-89
2022/09/11 08:56:30;;;;;;;10.27;6.47;;;18.50;99.90;;;;;;4990598;28;20038;-88
2022/09/11 08:59:01;;;;;;;8.57;5.40;;;18.70;99.90;;;;;;5006526;28;20049;-90
2022/09/11 09:01:48;;;;;;;8.10;4.60;;;18.80;99.90;;;;;;4995654;28;20049;-88
2022/09/11 09:04:26;;;;;;;9.45;4.50;;;18.80;99.90;;;;;;4994134;28;20406;-90
2022/09/11 09:07:16;;;;;;;8.43;4.75;;;18.90;99.90;;;;;;5007235;28;20054;-89
2022/09/11 09:10:06;;;;;;;8.93;4.80;;;19.00;99.90;;;;;;5007112;28;20060;-90
2022/09/11 09:13:02;;;;;;;7.07;3.40;;;19.00;99.90;;;;;;5013217;28;20050;-92
2022/09/11 09:15:46;;;;;;;8.05;3.33;;;19.20;99.90;;;;;;4950153;28;20465;-89
2022/09/11 09:18:30;;;;;;;8.18;3.50;;;19.30;99.90;;;;;;4945961;28;20068;-88
2022/09/11 09:21:09;;;;;;;8.45;3.60;;;19.30;99.90;;;;;;4948615;28;20074;-91
2022/09/11 09:23:42;;;;;;;7.30;3.90;;;19.30;99.90;;;;;;4963241;28;20043;-90
2022/09/11 09:26:16;;;;;;;6.97;3.17;;;19.40;99.90;;;;;;4928458;29;20409;-88
2022/09/11 09:28:46;;;;;;;8.55;3.95;;;19.40;99.90;;;;;;4912830;29;20143;-88
2022/09/11 09:31:18;;;;;;;8.00;3.45;;;19.40;99.90;;;;;;4936429;29;20051;-90
2022/09/11 09:34:00;;;;;;;6.93;3.30;;;19.50;99.90;;;;;;4948739;28;20424;-87
2022/09/11 09:36:33;;;;;;;6.97;3.30;;;19.50;99.90;;;;;;4963919;28;20604;-89
2022/09/11 09:39:00;;;;;;;6.47;2.70;;;19.60;99.90;;;;;;4915001;29;20074;-89
2022/09/11 09:41:57;;;;;;;6.25;2.90;;;19.60;99.90;;;;;;4916348;28;20113;-92
2022/09/11 09:44:52;;;;;;;8.20;3.28;;;19.70;99.90;;;;;;4925116;28;20145;-90
2022/09/11 09:47:18;;;;;;;9.48;3.75;;;19.70;99.90;;;;;;4970425;28;20046;-90
2022/09/11 09:49:44;;;;;;;7.30;2.60;;;19.80;99.90;;;;;;4952883;28;20495;-90
2022/09/11 09:52:17;;;;;;;6.30;2.85;;;19.90;99.90;;;;;;4974245;28;20124;-89
2022/09/11 09:54:51;;;;;;;8.32;3.00;;;20.00;99.90;;;;;;5010959;28;20092;-91
2022/09/11 09:57:17;;;;;;;6.88;3.55;;;20.00;99.90;;;;;;5011244;28;20041;-93
2022/09/11 10:00:14;;;;;;;7.13;3.63;;;20.10;99.90;;;;;;5011567;28;20474;-87
2022/09/11 10:02:48;;;;;;;8.43;3.60;;;20.10;99.90;;;;;;5006864;28;20044;-91
2022/09/11 10:05:19;;;;;;;7.85;3.47;;;20.10;99.90;;;;;;5010598;28;20088;-87
2022/09/11 10:07:57;;;;;;;7.65;3.60;;;20.20;99.90;;;;;;4993514;28;20048;-86
2022/09/11 10:10:28;;;;;;;7.00;2.90;;;20.20;99.90;;;;;;5005254;28;20101;-88
2022/09/11 10:13:14;;;;;;;5.53;3.00;;;20.20;99.90;;;;;;4991407;28;20046;-89
2022/09/11 10:15:41;;;;;;;6.07;3.05;;;20.10;99.90;;;;;;4982420;28;20293;-89
2022/09/11 10:18:29;;;;;;;5.55;2.55;;;20.00;99.90;;;;;;5004389;28;20041;-89
2022/09/11 10:21:21;;;;;;;6.55;2.67;;;19.90;99.90;;;;;;5003306;28;20088;-90
2022/09/11 10:24:25;;;;;;;6.07;2.53;;;19.80;99.90;;;;;;5010631;28;20041;-88
2022/09/11 10:26:53;;;;;;;6.25;2.80;;;19.70;99.90;;;;;;5006145;28;20053;-88
2022/09/11 10:29:23;;;;;;;6.82;2.90;;;19.70;99.90;;;;;;5006909;28;20057;-88
2022/09/11 10:31:58;;;;;;;6.30;2.93;;;19.70;99.90;;;;;;5022430;28;20057;-89
2022/09/11 10:34:26;;;;;;;7.50;2.72;;;19.60;99.90;;;;;;5004384;28;20085;-88
2022/09/11 10:37:00;;;;;;;7.82;3.08;;;19.60;99.90;;;;;;4990539;28;20046;-88
2022/09/11 10:39:29;;;;;;;6.40;2.97;;;19.60;99.90;;;;;;5011129;28;20049;-89
2022/09/11 10:42:00;;;;;;;7.28;2.85;;;19.70;99.90;;;;;;4992174;28;20042;-89
2022/09/11 10:44:28;;;;;;;6.60;2.80;;;19.70;99.90;;;;;;5011795;28;20046;-89
2022/09/11 10:47:05;;;;;;;8.80;3.00;;;19.80;99.90;;;;;;5006393;28;20128;-90
2022/09/11 10:49:32;;;;;;;7.65;2.67;;;19.90;99.90;;;;;;5009550;28;20187;-90
2022/09/11 10:52:07;;;;;;;4.53;2.25;;;20.00;99.90;;;;;;5009293;28;20060;-89
2022/09/11 10:54:54;;;;;;;6.25;2.30;;;20.00;99.90;;;;;;5010707;28;20045;-90
2022/09/11 10:57:42;;;;;;;6.18;2.58;;;20.10;99.90;;;;;;4993058;28;20050;-90
2022/09/11 11:00:21;;;;;;;6.53;2.45;;;20.20;99.90;;;;;;4993298;28;20038;-90
2022/09/11 11:03:09;;;;;;;7.07;2.50;;;20.30;99.90;;;;;;4993033;28;20042;-90
2022/09/11 11:05:55;;;;;;;4.68;1.88;;;20.50;99.90;;;;;;4992172;28;20093;-89
2022/09/11 11:08:35;;;;;;;5.15;1.90;;;20.60;99.90;;;;;;5010795;28;20054;-90
2022/09/11 11:11:44;;;;;;;4.80;1.92;;;20.70;99.90;;;;;;4992205;28;20140;-88
2022/09/11 11:14:45;;;;;;;6.30;2.30;;;20.80;99.90;;;;;;4983349;28;20085;-87
2022/09/11 11:17:35;;;;;;;5.45;2.05;;;20.90;99.90;;;;;;4991846;28;20054;-89
2022/09/11 11:20:13;;;;;;;5.07;2.05;;;20.90;99.90;;;;;;5008339;28;20052;-89
2022/09/11 11:22:42;;;;;;;5.90;1.90;;;20.90;99.90;;;;;;4992882;28;20088;-90
2022/09/11 11:25:26;;;;;;;3.95;1.90;;;21.00;99.90;;;;;;5009450;28;20046;-88
2022/09/11 11:27:58;;;;;;;5.43;1.88;;;21.00;99.90;;;;;;5008711;28;20046;-90
2022/09/11 11:30:32;;;;;;;4.30;1.80;;;21.10;99.90;;;;;;4992846;28;20450;-91
2022/09/11 11:33:30;;;;;;;4.60;1.73;;;21.00;99.90;;;;;;5007563;28;20042;-89
2022/09/11 11:36:20;;;;;;;7.88;2.13;;;21.00;99.90;;;;;;5008316;28;20052;-88
2022/09/11 11:38:59;;;;;;;4.88;1.85;;;20.90;99.90;;;;;;5008277;28;20387;-90
2022/09/11 11:41:46;;;;;;;5.07;1.95;;;21.00;99.90;;;;;;4992588;28;20044;-88
2022/09/11 11:44:23;;;;;;;5.78;1.75;;;21.00;99.90;;;;;;5008806;28;20057;-88
2022/09/11 11:46:54;;;;;;;4.10;1.90;;;21.10;99.90;;;;;;5008239;28;20046;-88
2022/09/11 11:49:44;;;;;;;4.80;1.75;;;21.20;99.90;;;;;;4992459;28;20052;-89
2022/09/11 11:52:12;;;;;;;6.70;2.20;;;21.30;99.90;;;;;;5008453;28;20042;-89
2022/09/11 11:54:48;;;;;;;4.88;1.70;;;21.50;99.90;;;;;;5024915;28;20049;-90
2022/09/11 11:57:19;;;;;;;3.08;1.50;;;21.50;99.90;;;;;;5009545;28;20104;-89
2022/09/11 12:00:23;;;;;;;;;;;21.40;99.90;;;;;;5010001;28;20042;-89
2022/09/11 12:03:10;;;;;;;2.47;1.40;;;21.40;99.90;;;;;;4951211;28;19930;-90
2022/09/11 12:05:37;;;;;;;4.10;1.58;;;21.40;99.90;;;;;;4917153;28;20141;-89
2022/09/11 12:08:03;;;;;;;3.42;1.67;;;21.40;99.90;;;;;;4950851;28;20059;-92
2022/09/11 12:10:34;;;;;;;4.93;1.95;;;21.30;99.90;;;;;;4936215;28;20054;-90
2022/09/11 12:13:20;;;;;;;5.53;2.38;;;21.20;99.90;;;;;;4948910;28;20035;-90
2022/09/11 12:16:09;;;;;;;6.88;2.60;;;21.10;99.90;;;;;;4943732;28;20051;-90
2022/09/11 12:18:36;;;;;;;5.63;2.10;;;21.00;99.90;;;;;;4921206;28;20058;-90
2022/09/11 12:21:34;;;;;;;4.80;2.38;;;21.00;99.90;;;;;;4944345;28;20949;-90
2022/09/11 12:24:02;;;;;;;5.93;2.35;;;20.90;99.90;;;;;;4931955;28;20498;-90
2022/09/11 12:26:30;;;;;;;5.20;2.45;;;20.90;99.90;;;;;;4962162;28;20058;-90
2022/09/11 12:29:11;;;;;;;5.63;2.47;;;20.90;99.90;;;;;;4929829;29;20126;-90
2022/09/11 12:31:49;;;;;;;7.05;2.40;;;20.90;99.90;;;;;;4933582;28;20047;-92
2022/09/11 12:34:45;;;;;;;5.78;2.28;;;20.90;99.90;;;;;;4990238;28;20046;-93
2022/09/11 12:37:19;;;;;;;10.90;5.82;;;21.00;99.90;;;;;;4991157;28;20129;-92
2022/09/11 12:39:57;;;;;;;9.23;5.20;;;21.00;99.90;;;;;;4991609;28;20046;-90
2022/09/11 12:42:22;;;;;;;5.93;3.17;;;21.10;99.90;;;;;;4989643;28;20041;-91
2022/09/11 12:44:48;;;;;;;5.88;2.65;;;21.00;99.90;;;;;;5006298;28;20038;-89
2022/09/11 12:47:34;;;;;;;5.82;2.55;;;21.10;99.90;;;;;;5009441;28;20177;-90
2022/09/11 12:50:17;;;;;;;5.88;2.58;;;21.10;99.90;;;;;;4996222;28;20056;-90
2022/09/11 12:53:00;;;;;;;4.53;2.45;;;21.00;99.90;;;;;;5006759;28;20116;-90
2022/09/11 12:55:52;;;;;;;6.43;2.97;;;21.00;99.90;;;;;;5010380;28;20046;-90
2022/09/11 12:58:18;;;;;;;6.43;2.88;;;20.90;99.90;;;;;;5008820;28;20442;-92
2022/09/11 13:00:46;;;;;;;5.25;2.30;;;20.90;99.90;;;;;;4985007;28;20050;-89
2022/09/11 13:03:20;;;;;;;6.18;2.50;;;20.90;99.90;;;;;;5010081;28;20061;-90
2022/09/11 13:06:05;;;;;;;6.57;2.35;;;20.90;99.90;;;;;;5007840;28;20598;-92